sensor_id;sensor_type;location;lat;lon;timestamp;pressure;altitude;pressure_sealevel;temperature
28803;BMP280;15949;55.656;37.422;2024-03-23T00:54:38;98487.38;;;1.09
28803;BMP280;15949;55.656;37.422;2024-03-23T00:59:45;98486.91;;;1.07
28803;BMP280;15949;55.656;37.422;2024-03-23T01:04:50;98473.91;;;1.03
28803;BMP280;15949;55.656;37.422;2024-03-23T01:09:56;98469.50;;;1.04
28803;BMP280;15949;55.656;37.422;2024-03-23T01:15:02;98463.63;;;1.03
28803;BMP280;15949;55.656;37.422;2024-03-23T01:20:08;98462.09;;;1.02
28803;BMP280;15949;55.656;37.422;2024-03-23T01:25:14;98455.00;;;0.99
28803;BMP280;15949;55.656;37.422;2024-03-23T01:30:20;98440.09;;;1.01
28803;BMP280;15949;55.656;37.422;2024-03-23T01:35:25;98432.97;;;0.98
28803;BMP280;15949;55.656;37.422;2024-03-23T01:40:31;98421.19;;;0.97
28803;BMP280;15949;55.656;37.422;2024-03-23T01:45:38;98417.19;;;0.91
28803;BMP280;15949;55.656;37.422;2024-03-23T01:50:43;98417.19;;;0.91
28803;BMP280;15949;55.656;37.422;2024-03-23T01:55:50;98412.06;;;0.91
28803;BMP280;15949;55.656;37.422;2024-03-23T02:00:59;98405.88;;;0.92
28803;BMP280;15949;55.656;37.422;2024-03-23T02:06:05;98391.84;;;0.90
28803;BMP280;15949;55.656;37.422;2024-03-23T02:11:12;98386.91;;;0.93
28803;BMP280;15949;55.656;37.422;2024-03-23T02:16:18;98380.72;;;0.94
28803;BMP280;15949;55.656;37.422;2024-03-23T02:21:24;98379.75;;;0.90
28803;BMP280;15949;55.656;37.422;2024-03-23T02:26:30;98360.31;;;0.89
28803;BMP280;15949;55.656;37.422;2024-03-23T02:31:36;98342.34;;;0.89
28803;BMP280;15949;55.656;37.422;2024-03-23T02:36:42;98329.22;;;0.91
28803;BMP280;15949;55.656;37.422;2024-03-23T02:41:47;98325.81;;;0.95
28803;BMP280;15949;55.656;37.422;2024-03-23T02:46:53;98317.25;;;1.00
28803;BMP280;15949;55.656;37.422;2024-03-23T02:51:59;98318.00;;;1.00
28803;BMP280;15949;55.656;37.422;2024-03-23T02:57:05;98303.53;;;1.04
28803;BMP280;15949;55.656;37.422;2024-03-23T03:02:11;98291.78;;;1.03
28803;BMP280;15949;55.656;37.422;2024-03-23T03:07:17;98288.44;;;1.03
28803;BMP280;15949;55.656;37.422;2024-03-23T03:12:23;98277.88;;;1.04
28803;BMP280;15949;55.656;37.422;2024-03-23T03:17:28;98272.47;;;1.06
28803;BMP280;15949;55.656;37.422;2024-03-23T03:22:34;98251.19;;;1.05
28803;BMP280;15949;55.656;37.422;2024-03-23T03:27:40;98250.59;;;1.09
28803;BMP280;15949;55.656;37.422;2024-03-23T03:32:46;98252.13;;;1.10
28803;BMP280;15949;55.656;37.422;2024-03-23T03:37:51;98244.72;;;1.08
28803;BMP280;15949;55.656;37.422;2024-03-23T03:42:57;98235.41;;;1.12
28803;BMP280;15949;55.656;37.422;2024-03-23T03:48:03;98230.34;;;1.21
28803;BMP280;15949;55.656;37.422;2024-03-23T03:53:09;98209.69;;;1.26
28803;BMP280;15949;55.656;37.422;2024-03-23T03:58:15;98201.09;;;1.30
28803;BMP280;15949;55.656;37.422;2024-03-23T04:03:21;98201.28;;;1.34
28803;BMP280;15949;55.656;37.422;2024-03-23T04:08:26;98185.28;;;1.37
28803;BMP280;15949;55.656;37.422;2024-03-23T04:13:32;98185.16;;;1.42
28803;BMP280;15949;55.656;37.422;2024-03-23T04:18:39;98181.56;;;1.43
28803;BMP280;15949;55.656;37.422;2024-03-23T04:23:45;98176.41;;;1.43
28803;BMP280;15949;55.656;37.422;2024-03-23T04:28:51;98167.81;;;1.47
28803;BMP280;15949;55.656;37.422;2024-03-23T04:33:57;98160.16;;;1.56
28803;BMP280;15949;55.656;37.422;2024-03-23T04:39:03;98151.28;;;1.71
28803;BMP280;15949;55.656;37.422;2024-03-23T04:44:09;98149.31;;;1.76
28803;BMP280;15949;55.656;37.422;2024-03-23T04:49:15;98132.59;;;1.79
28803;BMP280;15949;55.656;37.422;2024-03-23T04:54:21;98132.28;;;1.80
28803;BMP280;15949;55.656;37.422;2024-03-23T04:59:27;98126.56;;;1.83
28803;BMP280;15949;55.656;37.422;2024-03-23T05:04:33;98128.50;;;1.86
28803;BMP280;15949;55.656;37.422;2024-03-23T05:09:40;98124.13;;;1.87
28803;BMP280;15949;55.656;37.422;2024-03-23T05:14:46;98122.19;;;1.92
28803;BMP280;15949;55.656;37.422;2024-03-23T05:19:52;98114.59;;;1.87
28803;BMP280;15949;55.656;37.422;2024-03-23T05:24:58;98108.88;;;1.90
28803;BMP280;15949;55.656;37.422;2024-03-23T05:30:05;98099.22;;;1.96
28803;BMP280;15949;55.656;37.422;2024-03-23T05:35:11;98089.41;;;1.98
28803;BMP280;15949;55.656;37.422;2024-03-23T05:40:17;98093.94;;;1.92
28803;BMP280;15949;55.656;37.422;2024-03-23T05:45:23;98084.69;;;1.91
28803;BMP280;15949;55.656;37.422;2024-03-23T05:50:29;98085.75;;;1.90
28803;BMP280;15949;55.656;37.422;2024-03-23T05:55:35;98081.22;;;1.96
28803;BMP280;15949;55.656;37.422;2024-03-23T06:00:41;98077.75;;;2.00
28803;BMP280;15949;55.656;37.422;2024-03-23T06:05:47;98079.28;;;2.01
28803;BMP280;15949;55.656;37.422;2024-03-23T06:10:53;98074.72;;;1.98
28803;BMP280;15949;55.656;37.422;2024-03-23T06:16:00;98066.44;;;2.01
28803;BMP280;15949;55.656;37.422;2024-03-23T06:21:13;98058.72;;;2.01
28803;BMP280;15949;55.656;37.422;2024-03-23T06:26:19;98057.66;;;2.11
28803;BMP280;15949;55.656;37.422;2024-03-23T06:31:25;98057.06;;;2.14
28803;BMP280;15949;55.656;37.422;2024-03-23T06:36:31;98048.56;;;2.22
28803;BMP280;15949;55.656;37.422;2024-03-23T06:41:38;98045.09;;;2.27
28803;BMP280;15949;55.656;37.422;2024-03-23T06:46:43;98041.47;;;2.28
28803;BMP280;15949;55.656;37.422;2024-03-23T06:51:50;98033.59;;;2.33
28803;BMP280;15949;55.656;37.422;2024-03-23T06:56:55;98028.72;;;2.40
28803;BMP280;15949;55.656;37.422;2024-03-23T07:02:01;98012.53;;;2.39
28803;BMP280;15949;55.656;37.422;2024-03-23T07:07:07;98012.84;;;2.46
28803;BMP280;15949;55.656;37.422;2024-03-23T07:12:13;98005.56;;;2.48
28803;BMP280;15949;55.656;37.422;2024-03-23T07:17:19;98008.91;;;2.49
28803;BMP280;15949;55.656;37.422;2024-03-23T07:22:25;98001.19;;;2.49
28803;BMP280;15949;55.656;37.422;2024-03-23T07:27:31;97997.88;;;2.48
28803;BMP280;15949;55.656;37.422;2024-03-23T07:32:37;97993.94;;;2.51
28803;BMP280;15949;55.656;37.422;2024-03-23T07:37:43;97990.88;;;2.58
28803;BMP280;15949;55.656;37.422;2024-03-23T07:42:49;97994.03;;;2.63
28803;BMP280;15949;55.656;37.422;2024-03-23T07:47:55;97991.00;;;2.70
28803;BMP280;15949;55.656;37.422;2024-03-23T07:53:00;97996.41;;;2.77
28803;BMP280;15949;55.656;37.422;2024-03-23T07:58:06;97979.59;;;2.79
28803;BMP280;15949;55.656;37.422;2024-03-23T08:03:12;97981.09;;;2.80
28803;BMP280;15949;55.656;37.422;2024-03-23T08:08:18;97969.69;;;2.90
28803;BMP280;15949;55.656;37.422;2024-03-23T08:13:24;97965.28;;;2.99
28803;BMP280;15949;55.656;37.422;2024-03-23T08:18:30;97961.44;;;3.05
28803;BMP280;15949;55.656;37.422;2024-03-23T08:23:37;97958.19;;;3.17
28803;BMP280;15949;55.656;37.422;2024-03-23T08:28:43;97955.44;;;3.22
28803;BMP280;15949;55.656;37.422;2024-03-23T08:33:49;97951.81;;;3.23
28803;BMP280;15949;55.656;37.422;2024-03-23T08:38:55;97959.94;;;3.25
28803;BMP280;15949;55.656;37.422;2024-03-23T08:44:01;97945.25;;;3.25
28803;BMP280;15949;55.656;37.422;2024-03-23T08:49:07;97941.16;;;3.24
28803;BMP280;15949;55.656;37.422;2024-03-23T08:54:13;97934.97;;;3.25
28803;BMP280;15949;55.656;37.422;2024-03-23T08:59:20;97931.47;;;3.30
28803;BMP280;15949;55.656;37.422;2024-03-23T09:04:26;97926.09;;;3.35
28803;BMP280;15949;55.656;37.422;2024-03-23T09:09:32;97926.16;;;3.47
28803;BMP280;15949;55.656;37.422;2024-03-23T09:14:38;97916.72;;;3.51
28803;BMP280;15949;55.656;37.422;2024-03-23T09:19:43;97907.19;;;3.51
28803;BMP280;15949;55.656;37.422;2024-03-23T09:24:49;97913.47;;;3.42
28803;BMP280;15949;55.656;37.422;2024-03-23T09:29:55;97908.78;;;3.44
28803;BMP280;15949;55.656;37.422;2024-03-23T09:35:01;97901.28;;;3.51
28803;BMP280;15949;55.656;37.422;2024-03-23T09:40:11;97899.91;;;3.53
28803;BMP280;15949;55.656;37.422;2024-03-23T09:45:21;97896.06;;;3.60
28803;BMP280;15949;55.656;37.422;2024-03-23T09:50:27;97902.38;;;3.62
28803;BMP280;15949;55.656;37.422;2024-03-23T09:55:34;97893.19;;;3.73
28803;BMP280;15949;55.656;37.422;2024-03-23T10:00:44;97890.69;;;3.65
28803;BMP280;15949;55.656;37.422;2024-03-23T10:06:10;97880.72;;;3.63
28803;BMP280;15949;55.656;37.422;2024-03-23T10:11:16;97890.09;;;3.68
28803;BMP280;15949;55.656;37.422;2024-03-23T10:16:24;97889.06;;;3.60
28803;BMP280;15949;55.656;37.422;2024-03-23T10:21:30;97868.44;;;3.60
28803;BMP280;15949;55.656;37.422;2024-03-23T10:26:36;97864.50;;;3.63
28803;BMP280;15949;55.656;37.422;2024-03-23T10:31:42;97872.25;;;3.63
28803;BMP280;15949;55.656;37.422;2024-03-23T10:36:48;97862.81;;;3.67
28803;BMP280;15949;55.656;37.422;2024-03-23T10:41:56;97864.22;;;3.64
28803;BMP280;15949;55.656;37.422;2024-03-23T10:47:04;97859.19;;;3.68
28803;BMP280;15949;55.656;37.422;2024-03-23T10:52:10;97861.75;;;3.68
28803;BMP280;15949;55.656;37.422;2024-03-23T10:57:18;97871.84;;;3.73
28803;BMP280;15949;55.656;37.422;2024-03-23T11:02:25;97860.69;;;3.69
28803;BMP280;15949;55.656;37.422;2024-03-23T11:07:33;97852.63;;;3.70
28803;BMP280;15949;55.656;37.422;2024-03-23T11:12:39;97849.31;;;3.82
28803;BMP280;15949;55.656;37.422;2024-03-23T11:23:27;97833.13;;;3.81
28803;BMP280;15949;55.656;37.422;2024-03-23T11:28:33;97836.75;;;3.80
28803;BMP280;15949;55.656;37.422;2024-03-23T11:33:39;97836.19;;;3.75
28803;BMP280;15949;55.656;37.422;2024-03-23T11:38:44;97839.31;;;3.68
28803;BMP280;15949;55.656;37.422;2024-03-23T11:43:50;97832.84;;;3.62
28803;BMP280;15949;55.656;37.422;2024-03-23T11:48:56;97828.69;;;3.58
28803;BMP280;15949;55.656;37.422;2024-03-23T11:54:08;97834.56;;;3.58
28803;BMP280;15949;55.656;37.422;2024-03-23T11:59:30;97820.38;;;3.52
28803;BMP280;15949;55.656;37.422;2024-03-23T12:04:37;97821.91;;;3.53
28803;BMP280;15949;55.656;37.422;2024-03-23T12:09:44;97824.78;;;3.51
28803;BMP280;15949;55.656;37.422;2024-03-23T12:20:10;97820.25;;;3.48
28803;BMP280;15949;55.656;37.422;2024-03-23T12:25:16;97818.00;;;3.47
28803;BMP280;15949;55.656;37.422;2024-03-23T12:30:22;97818.22;;;3.42
28803;BMP280;15949;55.656;37.422;2024-03-23T12:35:28;97821.88;;;3.41
28803;BMP280;15949;55.656;37.422;2024-03-23T12:40:33;97814.78;;;3.38
28803;BMP280;15949;55.656;37.422;2024-03-23T12:45:39;97822.31;;;3.43
28803;BMP280;15949;55.656;37.422;2024-03-23T12:50:45;97812.66;;;3.40
28803;BMP280;15949;55.656;37.422;2024-03-23T12:55:51;97815.53;;;3.38
28803;BMP280;15949;55.656;37.422;2024-03-23T13:00:58;97812.34;;;3.41
28803;BMP280;15949;55.656;37.422;2024-03-23T13:06:04;97811.59;;;3.41
28803;BMP280;15949;55.656;37.422;2024-03-23T13:11:13;97803.41;;;3.39
28803;BMP280;15949;55.656;37.422;2024-03-23T13:16:19;97805.34;;;3.42
28803;BMP280;15949;55.656;37.422;2024-03-23T13:21:25;97811.38;;;3.46
28803;BMP280;15949;55.656;37.422;2024-03-23T13:26:31;97797.31;;;3.43
28803;BMP280;15949;55.656;37.422;2024-03-23T13:31:36;97794.81;;;3.47
28803;BMP280;15949;55.656;37.422;2024-03-23T13:36:46;97797.22;;;3.52
28803;BMP280;15949;55.656;37.422;2024-03-23T13:41:52;97794.63;;;3.52
28803;BMP280;15949;55.656;37.422;2024-03-23T13:46:58;97790.25;;;3.52
28803;BMP280;15949;55.656;37.422;2024-03-23T13:52:04;97789.47;;;3.52
28803;BMP280;15949;55.656;37.422;2024-03-23T13:57:09;97791.00;;;3.53
28803;BMP280;15949;55.656;37.422;2024-03-23T14:02:16;97791.63;;;3.50
28803;BMP280;15949;55.656;37.422;2024-03-23T14:07:22;97787.84;;;3.47
28803;BMP280;15949;55.656;37.422;2024-03-23T14:12:28;97790.44;;;3.47
28803;BMP280;15949;55.656;37.422;2024-03-23T14:17:33;97785.63;;;3.46
28803;BMP280;15949;55.656;37.422;2024-03-23T14:22:39;97794.41;;;3.45
28803;BMP280;15949;55.656;37.422;2024-03-23T14:27:46;97788.84;;;3.43
28803;BMP280;15949;55.656;37.422;2024-03-23T14:32:52;97793.56;;;3.41
28803;BMP280;15949;55.656;37.422;2024-03-23T14:37:59;97788.41;;;3.41
28803;BMP280;15949;55.656;37.422;2024-03-23T14:43:04;97788.72;;;3.39
28803;BMP280;15949;55.656;37.422;2024-03-23T14:48:10;97791.41;;;3.43
28803;BMP280;15949;55.656;37.422;2024-03-23T14:53:16;97788.31;;;3.49
28803;BMP280;15949;55.656;37.422;2024-03-23T14:58:23;97787.56;;;3.49
28803;BMP280;15949;55.656;37.422;2024-03-23T15:03:30;97790.88;;;3.49
28803;BMP280;15949;55.656;37.422;2024-03-23T15:08:36;97780.88;;;3.48
28803;BMP280;15949;55.656;37.422;2024-03-23T15:13:49;97791.50;;;3.46
28803;BMP280;15949;55.656;37.422;2024-03-23T15:18:56;97790.34;;;3.44
28803;BMP280;15949;55.656;37.422;2024-03-23T15:24:02;97785.19;;;3.44
28803;BMP280;15949;55.656;37.422;2024-03-23T15:29:07;97789.25;;;3.45
28803;BMP280;15949;55.656;37.422;2024-03-23T15:34:19;97792.16;;;3.43
28803;BMP280;15949;55.656;37.422;2024-03-23T15:39:27;97807.91;;;3.42
28803;BMP280;15949;55.656;37.422;2024-03-23T15:44:34;97813.53;;;3.44
28803;BMP280;15949;55.656;37.422;2024-03-23T15:49:40;97811.03;;;3.47
28803;BMP280;15949;55.656;37.422;2024-03-23T15:54:46;97818.00;;;3.47
28803;BMP280;15949;55.656;37.422;2024-03-23T15:59:52;97815.44;;;3.47
28803;BMP280;15949;55.656;37.422;2024-03-23T16:04:58;97818.75;;;3.47
28803;BMP280;15949;55.656;37.422;2024-03-23T16:10:27;97831.84;;;3.42
28803;BMP280;15949;55.656;37.422;2024-03-23T16:15:33;97827.03;;;3.41
28803;BMP280;15949;55.656;37.422;2024-03-23T16:20:39;97839.44;;;3.39
28803;BMP280;15949;55.656;37.422;2024-03-23T16:26:04;97842.47;;;3.41
28803;BMP280;15949;55.656;37.422;2024-03-23T16:31:10;97857.28;;;3.44
28803;BMP280;15949;55.656;37.422;2024-03-23T16:36:16;97859.41;;;3.42
28803;BMP280;15949;55.656;37.422;2024-03-23T16:41:22;97858.34;;;3.43
28803;BMP280;15949;55.656;37.422;2024-03-23T16:46:28;97845.06;;;3.41
28803;BMP280;15949;55.656;37.422;2024-03-23T16:51:34;97859.75;;;3.40
28803;BMP280;15949;55.656;37.422;2024-03-23T16:56:40;97859.16;;;3.35
28803;BMP280;15949;55.656;37.422;2024-03-23T17:01:46;97850.56;;;3.31
28803;BMP280;15949;55.656;37.422;2024-03-23T17:06:52;97862.47;;;3.23
28803;BMP280;15949;55.656;37.422;2024-03-23T17:11:57;97862.78;;;3.22
28803;BMP280;15949;55.656;37.422;2024-03-23T17:17:04;97870.28;;;3.15
28803;BMP280;15949;55.656;37.422;2024-03-23T17:22:10;97883.91;;;3.07
28803;BMP280;15949;55.656;37.422;2024-03-23T17:27:18;97874.03;;;2.96
28803;BMP280;15949;55.656;37.422;2024-03-23T17:32:24;97878.34;;;2.84
28803;BMP280;15949;55.656;37.422;2024-03-23T17:37:29;97884.00;;;2.77
28803;BMP280;15949;55.656;37.422;2024-03-23T17:42:36;97893.59;;;2.68
28803;BMP280;15949;55.656;37.422;2024-03-23T17:47:42;97905.41;;;2.61
28803;BMP280;15949;55.656;37.422;2024-03-23T17:53:06;97917.41;;;2.48
28803;BMP280;15949;55.656;37.422;2024-03-23T17:58:12;97917.28;;;2.44
28803;BMP280;15949;55.656;37.422;2024-03-23T18:03:19;97925.91;;;2.40
28803;BMP280;15949;55.656;37.422;2024-03-23T18:08:25;97930.94;;;2.36
28803;BMP280;15949;55.656;37.422;2024-03-23T18:13:31;97936.84;;;2.28
28803;BMP280;15949;55.656;37.422;2024-03-23T18:18:37;97946.06;;;2.29
28803;BMP280;15949;55.656;37.422;2024-03-23T18:23:46;97944.09;;;2.26
28803;BMP280;15949;55.656;37.422;2024-03-23T18:28:52;97943.09;;;2.19
28803;BMP280;15949;55.656;37.422;2024-03-23T18:33:58;97937.47;;;2.17
28803;BMP280;15949;55.656;37.422;2024-03-23T18:39:06;97941.59;;;2.09
28803;BMP280;15949;55.656;37.422;2024-03-23T18:44:12;97951.72;;;2.06
28803;BMP280;15949;55.656;37.422;2024-03-23T18:49:18;97950.19;;;2.04
28803;BMP280;15949;55.656;37.422;2024-03-23T18:54:24;97949.16;;;2.06
28803;BMP280;15949;55.656;37.422;2024-03-23T18:59:30;97951.59;;;2.02
28803;BMP280;15949;55.656;37.422;2024-03-23T19:04:36;97957.31;;;1.99
28803;BMP280;15949;55.656;37.422;2024-03-23T19:09:42;97964.84;;;2.04
28803;BMP280;15949;55.656;37.422;2024-03-23T19:14:48;97970.75;;;2.04
28803;BMP280;15949;55.656;37.422;2024-03-23T19:19:55;97971.41;;;2.01
28803;BMP280;15949;55.656;37.422;2024-03-23T19:25:01;97980.00;;;1.97
28803;BMP280;15949;55.656;37.422;2024-03-23T19:30:10;97988.63;;;1.92
28803;BMP280;15949;55.656;37.422;2024-03-23T19:35:17;97985.00;;;1.93
28803;BMP280;15949;55.656;37.422;2024-03-23T19:40:23;97986.03;;;1.92
28803;BMP280;15949;55.656;37.422;2024-03-23T19:45:29;97994.81;;;1.91
28803;BMP280;15949;55.656;37.422;2024-03-23T19:50:35;98009.44;;;1.91
28803;BMP280;15949;55.656;37.422;2024-03-23T19:55:41;98007.78;;;1.86
28803;BMP280;15949;55.656;37.422;2024-03-23T20:00:47;98010.22;;;1.83
28803;BMP280;15949;55.656;37.422;2024-03-23T20:06:02;98011.56;;;1.80
28803;BMP280;15949;55.656;37.422;2024-03-23T20:11:08;98010.66;;;1.76
28803;BMP280;15949;55.656;37.422;2024-03-23T20:16:14;98007.50;;;1.71
28803;BMP280;15949;55.656;37.422;2024-03-23T20:21:20;98004.94;;;1.71
28803;BMP280;15949;55.656;37.422;2024-03-23T20:26:26;97990.25;;;1.71
28803;BMP280;15949;55.656;37.422;2024-03-23T20:31:32;97997.97;;;1.71
28803;BMP280;15949;55.656;37.422;2024-03-23T20:36:38;98010.09;;;1.79
28803;BMP280;15949;55.656;37.422;2024-03-23T20:41:44;98009.59;;;1.86
28803;BMP280;15949;55.656;37.422;2024-03-23T20:46:50;98010.22;;;1.91
28803;BMP280;15949;55.656;37.422;2024-03-23T20:51:56;98009.31;;;1.96
28803;BMP280;15949;55.656;37.422;2024-03-23T20:57:02;98019.56;;;2.04
28803;BMP280;15949;55.656;37.422;2024-03-23T21:02:08;98015.78;;;2.11
28803;BMP280;15949;55.656;37.422;2024-03-23T21:07:14;98020.47;;;2.17
28803;BMP280;15949;55.656;37.422;2024-03-23T21:12:20;98025.72;;;2.21
28803;BMP280;15949;55.656;37.422;2024-03-23T21:17:26;98007.59;;;2.26
28803;BMP280;15949;55.656;37.422;2024-03-23T21:22:32;98016.06;;;2.26
28803;BMP280;15949;55.656;37.422;2024-03-23T21:27:41;98008.97;;;2.23
28803;BMP280;15949;55.656;37.422;2024-03-23T21:32:47;98026.06;;;2.19
28803;BMP280;15949;55.656;37.422;2024-03-23T21:37:53;98052.03;;;2.26
28803;BMP280;15949;55.656;37.422;2024-03-23T21:42:59;98047.81;;;2.30
28803;BMP280;15949;55.656;37.422;2024-03-23T21:48:05;98037.09;;;2.37
28803;BMP280;15949;55.656;37.422;2024-03-23T21:53:11;98042.63;;;2.39
28803;BMP280;15949;55.656;37.422;2024-03-23T21:58:18;98030.53;;;2.39
28803;BMP280;15949;55.656;37.422;2024-03-23T22:03:24;98026.63;;;2.42
28803;BMP280;15949;55.656;37.422;2024-03-23T22:08:30;98027.66;;;2.41
28803;BMP280;15949;55.656;37.422;2024-03-23T22:13:36;98024.94;;;2.46
28803;BMP280;15949;55.656;37.422;2024-03-23T22:18:43;98022.38;;;2.46
28803;BMP280;15949;55.656;37.422;2024-03-23T22:23:49;98040.81;;;2.48
28803;BMP280;15949;55.656;37.422;2024-03-23T22:28:55;98042.66;;;2.47
28803;BMP280;15949;55.656;37.422;2024-03-23T22:34:01;98044.47;;;2.47
28803;BMP280;15949;55.656;37.422;2024-03-23T22:39:07;98044.47;;;2.47
28803;BMP280;15949;55.656;37.422;2024-03-23T22:44:14;98045.66;;;2.49
28803;BMP280;15949;55.656;37.422;2024-03-23T22:49:20;98037.03;;;2.45
28803;BMP280;15949;55.656;37.422;2024-03-23T22:54:26;98032.53;;;2.42
28803;BMP280;15949;55.656;37.422;2024-03-23T22:59:32;98039.91;;;2.44
28803;BMP280;15949;55.656;37.422;2024-03-23T23:04:38;98042.19;;;2.45
28803;BMP280;15949;55.656;37.422;2024-03-23T23:09:44;98043.09;;;2.49
28803;BMP280;15949;55.656;37.422;2024-03-23T23:14:50;98052.75;;;2.52
28803;BMP280;15949;55.656;37.422;2024-03-23T23:19:56;98046.25;;;2.55
28803;BMP280;15949;55.656;37.422;2024-03-23T23:25:02;98049.88;;;2.54
28803;BMP280;15949;55.656;37.422;2024-03-23T23:30:08;98039.59;;;2.54
28803;BMP280;15949;55.656;37.422;2024-03-23T23:35:14;98040.03;;;2.56
28803;BMP280;15949;55.656;37.422;2024-03-23T23:40:20;98029.63;;;2.52
28803;BMP280;15949;55.656;37.422;2024-03-23T23:45:25;98028.41;;;2.50
28803;BMP280;15949;55.656;37.422;2024-03-23T23:50:32;98040.22;;;2.51
28803;BMP280;15949;55.656;37.422;2024-03-23T23:55:38;98040.09;;;2.47
